Terminal Aerodrome Forecast
Issued by NWS Shreveport, LA

Home | Current Version | Previous Version | Text Only | Print | Product List | Glossary On
Versions: 1 2 3 4 5 6 7 8 9 10 11 12 13 14 15
000
FTUS44 KSHV 220500 RRA
TAFTXK
TAF
KTXK 220541Z 2206/2306 19006KT P6SM OVC016
      TEMPO 2209/2211 5SM BR BKN009 OVC015
     FM221100 18006KT 6SM BR OVC007
     FM221600 19008KT P6SM OVC007
     FM222000 22008KT P6SM OVC013
     FM230000 25007KT P6SM BKN017
     FM230400 26005KT P6SM SCT020 SCT100 BKN250=

USA.gov is the U.S. government's official web portal to all federal, state and local government web resources and services.